createdAt,value
2023-03-02T00:00:02.343Z,43.749422885657566
2023-03-02T00:15:02.517Z,43.80409608156103
2023-03-02T00:30:02.352Z,43.92378503725627
2023-03-02T00:45:02.048Z,44.0635967418792
2023-03-02T01:00:02.732Z,44.11358485890744
2023-03-02T01:15:02.405Z,44.293889588438915
2023-03-02T01:30:01.795Z,44.57417605333962
2023-03-02T01:45:02.146Z,44.686352067474616
2023-03-02T02:00:02.137Z,43.962914384726986
2023-03-02T02:15:01.931Z,43.033492779436315
2023-03-02T02:30:01.675Z,44.45692482536807
2023-03-02T02:45:02.413Z,44.23606416667328
2023-03-02T03:00:02.101Z,43.568757878246394
2023-03-02T03:15:01.799Z,43.64858206954254
2023-03-02T03:30:01.505Z,43.383909031027834
2023-03-02T03:45:02.177Z,43.21416727582124
2023-03-02T04:00:01.886Z,43.59918877976778
2023-03-02T04:15:01.664Z,43.438771861615834
2023-03-02T04:30:01.420Z,43.521606860522155
2023-03-02T04:45:02.119Z,43.05324582368655
2023-03-02T05:00:01.756Z,43.47495273338375
2023-03-02T05:15:01.437Z,43.06378726302894
2023-03-02T05:30:02.100Z,43.463674535786396
2023-03-02T05:45:01.802Z,43.59958420432499
2023-03-02T06:00:01.537Z,42.154355118024554
2023-03-02T06:15:02.462Z,41.6542853185732
2023-03-02T06:30:02.140Z,41.36681340283465
2023-03-02T06:45:01.797Z,41.20155223500792
2023-03-02T07:00:02.419Z,41.23132043398528
2023-03-02T07:15:02.033Z,40.682511344527406
2023-03-02T07:30:01.742Z,39.5127994097189
2023-03-02T07:45:02.392Z,38.982204282644076
2023-03-02T08:00:02.005Z,37.92251940269682
2023-03-02T08:15:04.424Z,37.64687081606754
2023-03-02T08:30:01.639Z,37.13390571918412
2023-03-02T08:45:02.310Z,36.26887866999781
2023-03-02T09:00:01.940Z,36.50542837874959
2023-03-02T09:15:01.610Z,35.040270660507986
2023-03-02T09:30:02.306Z,37.45323150757228
2023-03-02T09:45:01.958Z,35.41893281731772
2023-03-02T10:00:09.507Z,31.86721218335583
2023-03-02T10:15:01.413Z,32.678364855615435
2023-03-02T10:30:02.041Z,26.193464844833542
2023-03-02T10:45:01.667Z,21.311929852937745
2023-03-02T11:00:02.291Z,18.938845345056414
2023-03-02T11:15:01.947Z,18.774911170629025
2023-03-02T11:30:01.650Z,23.607157367672766
2023-03-02T11:45:01.312Z,20.355805914470015
2023-03-02T12:00:01.950Z,19.12592812695304
2023-03-02T12:15:01.637Z,20.877659177938817
2023-03-02T12:30:01.311Z,19.67767505077167
2023-03-02T12:45:02.018Z,22.28004613824939
2023-03-02T13:00:01.707Z,23.239972767364957
2023-03-02T13:15:01.371Z,22.3384942755896
2023-03-02T13:30:02.055Z,23.078981908239143
2023-03-02T13:45:01.718Z,24.568877528575882
2023-03-02T14:00:01.381Z,24.20472769239833
2023-03-02T14:15:02.412Z,26.153555246774985
2023-03-02T14:30:02.162Z,31.291836212953612
2023-03-02T14:45:01.840Z,34.01009449887042
2023-03-02T15:00:02.528Z,36.55800987668645
2023-03-02T15:15:02.201Z,38.30943070091297
2023-03-02T15:30:01.899Z,39.20333680968796
2023-03-02T15:45:01.556Z,40.29068407029907
2023-03-02T16:00:04.297Z,40.42542507843234
2023-03-02T16:15:01.859Z,41.300157524456495
2023-03-02T16:30:01.532Z,42.12818137548456
2023-03-02T16:45:02.156Z,42.580329407140326
2023-03-02T17:00:01.875Z,42.95307124250516
2023-03-02T17:15:01.586Z,43.924688966437536
2023-03-02T17:30:02.298Z,43.63671595964999
2023-03-02T17:45:01.986Z,43.76557735626972
2023-03-02T18:00:01.687Z,43.8743365336845
2023-03-02T18:15:01.393Z,44.06977405991872
2023-03-02T18:30:02.116Z,43.94155412506079
2023-03-02T18:45:01.851Z,43.31195370069569
2023-03-02T19:00:01.554Z,43.801236816404256
2023-03-02T19:15:02.249Z,44.582943201962486
2023-03-02T19:30:02.041Z,44.18616907133094
2023-03-02T19:45:01.749Z,44.106620340002394
2023-03-02T20:00:01.460Z,44.23468142495033
2023-03-02T20:15:02.198Z,44.040149577253665
2023-03-02T20:30:01.934Z,43.8392497254934
2023-03-02T20:45:01.726Z,43.76178263961444
2023-03-02T21:00:01.391Z,43.42377556240656
2023-03-02T21:15:02.163Z,43.66192633360854
2023-03-02T21:30:01.897Z,44.17900098559585
2023-03-02T21:45:01.590Z,43.84068853825754
2023-03-02T22:00:01.287Z,43.696325004129164
2023-03-02T22:15:02.371Z,44.17874844636224
2023-03-02T22:30:02.089Z,43.523230543504006
2023-03-02T22:45:01.796Z,43.646032493779146
2023-03-02T23:00:01.492Z,43.773563790677656
2023-03-02T23:15:02.195Z,43.389996191394005
2023-03-02T23:30:01.917Z,43.56183573564262
2023-03-02T23:45:01.723Z,43.74634526707555
